createdAt,value
2022-12-06T00:01:42.098Z,4.40
2022-12-06T00:04:13.777Z,4.40
2022-12-06T00:06:51.615Z,4.40
2022-12-06T00:09:23.362Z,4.30
2022-12-06T00:11:50.896Z,4.30
2022-12-06T00:14:18.506Z,4.30
2022-12-06T00:16:45.892Z,4.30
2022-12-06T00:19:15.186Z,4.30
2022-12-06T00:21:42.805Z,4.30
2022-12-06T00:24:14.303Z,4.20
2022-12-06T00:26:44.869Z,4.20
2022-12-06T00:29:18.995Z,4.20
2022-12-06T00:31:46.488Z,4.20
2022-12-06T00:34:13.729Z,4.20
2022-12-06T00:36:42.170Z,4.10
2022-12-06T00:39:15.916Z,4.10
2022-12-06T00:41:46.464Z,4.10
2022-12-06T00:44:13.728Z,4.00
2022-12-06T00:46:40.820Z,4.00
2022-12-06T00:49:09.227Z,4.00
2022-12-06T00:51:37.505Z,4.00
2022-12-06T00:54:06.037Z,4.00
2022-12-06T00:56:36.350Z,4.00
2022-12-06T00:59:04.491Z,4.00
2022-12-06T01:01:34.212Z,4.00
2022-12-06T01:04:05.413Z,3.90
2022-12-06T01:06:35.181Z,3.90
2022-12-06T01:09:09.303Z,3.90
2022-12-06T01:11:37.767Z,3.90
2022-12-06T01:14:05.584Z,3.90
2022-12-06T01:16:33.301Z,3.90
2022-12-06T01:19:03.749Z,3.90
2022-12-06T01:21:31.466Z,3.90
2022-12-06T01:23:59.369Z,3.90
2022-12-06T01:26:32.697Z,3.90
2022-12-06T01:29:02.615Z,3.90
2022-12-06T01:31:37.300Z,3.90
2022-12-06T01:34:06.566Z,3.90
2022-12-06T01:36:33.754Z,3.90
2022-12-06T01:39:06.511Z,3.90
2022-12-06T01:41:34.038Z,3.90
2022-12-06T01:44:01.074Z,3.90
2022-12-06T01:46:39.036Z,3.90
2022-12-06T01:49:25.658Z,3.90
2022-12-06T01:52:03.391Z,3.90
2022-12-06T01:54:32.361Z,3.90
2022-12-06T01:57:01.613Z,3.90
2022-12-06T01:59:29.902Z,3.90
2022-12-06T02:01:57.689Z,3.90
2022-12-06T02:04:25.656Z,3.90
2022-12-06T02:06:54.483Z,3.90
2022-12-06T02:09:23.271Z,3.90
2022-12-06T02:11:50.306Z,4.00
2022-12-06T02:14:23.974Z,4.00
2022-12-06T02:17:10.962Z,4.00
2022-12-06T02:20:17.151Z,4.00
2022-12-06T02:23:27.665Z,4.00
2022-12-06T02:26:03.337Z,4.00
2022-12-06T02:29:08.595Z,3.90
2022-12-06T02:32:08.764Z,3.90
2022-12-06T02:35:04.247Z,3.90
2022-12-06T02:37:53.607Z,3.90
2022-12-06T02:40:27.416Z,4.00
2022-12-06T02:43:04.251Z,3.90
2022-12-06T02:45:37.652Z,3.90
2022-12-06T02:48:07.253Z,4.00
2022-12-06T02:50:44.784Z,4.00
2022-12-06T02:53:18.815Z,4.00
2022-12-06T02:55:46.535Z,4.00
2022-12-06T02:58:13.683Z,4.00
2022-12-06T03:00:44.306Z,4.00
2022-12-06T03:03:42.161Z,4.00
2022-12-06T03:06:29.788Z,4.00
2022-12-06T03:09:28.200Z,4.00
2022-12-06T03:12:21.138Z,3.90
2022-12-06T03:15:19.520Z,3.90
2022-12-06T03:18:13.580Z,3.90
2022-12-06T03:20:51.447Z,3.90
2022-12-06T03:23:25.366Z,3.90
2022-12-06T03:25:55.312Z,3.90
2022-12-06T03:28:22.921Z,3.90
2022-12-06T03:30:54.135Z,3.90
2022-12-06T03:33:26.610Z,3.90
2022-12-06T03:35:55.437Z,3.90
2022-12-06T03:38:36.919Z,4.00
2022-12-06T03:41:07.521Z,3.90
2022-12-06T03:43:35.113Z,4.00
2022-12-06T03:46:11.321Z,4.00
2022-12-06T03:49:11.560Z,4.00
2022-12-06T03:51:40.548Z,4.10
2022-12-06T03:54:08.928Z,4.10
2022-12-06T03:56:38.141Z,4.10
2022-12-06T03:59:07.340Z,4.00
2022-12-06T04:01:34.547Z,4.00
2022-12-06T04:04:01.897Z,4.00
2022-12-06T04:06:29.298Z,4.00
2022-12-06T04:09:16.787Z,4.00
2022-12-06T04:11:43.922Z,4.10
2022-12-06T04:14:11.762Z,4.10
2022-12-06T04:16:57.540Z,4.10
2022-12-06T04:19:24.582Z,4.20
2022-12-06T04:22:10.108Z,4.20
2022-12-06T04:24:37.232Z,4.20
2022-12-06T04:27:23.400Z,4.20
2022-12-06T04:30:09.098Z,4.20
2022-12-06T04:32:55.011Z,4.30
2022-12-06T04:35:40.602Z,4.30
2022-12-06T04:38:26.424Z,4.30
2022-12-06T04:40:53.447Z,4.30
2022-12-06T04:43:39.071Z,4.30
2022-12-06T04:46:07.086Z,4.30
2022-12-06T04:48:34.123Z,4.30
2022-12-06T04:51:01.320Z,4.40
2022-12-06T04:53:28.655Z,4.40
2022-12-06T04:55:55.911Z,4.40
2022-12-06T04:58:23.379Z,4.50
2022-12-06T05:00:52.581Z,4.50
2022-12-06T05:03:19.726Z,4.50
2022-12-06T05:05:47.204Z,4.50
2022-12-06T05:08:14.402Z,4.60
2022-12-06T05:10:41.468Z,4.60
2022-12-06T05:13:10.383Z,4.60
2022-12-06T05:15:37.623Z,4.60
2022-12-06T05:18:05.196Z,4.60
2022-12-06T05:20:32.253Z,4.60
2022-12-06T05:22:59.268Z,4.60
2022-12-06T05:25:26.296Z,4.70
2022-12-06T05:27:53.339Z,4.70
2022-12-06T05:30:20.493Z,4.70
2022-12-06T05:32:50.277Z,4.70
2022-12-06T05:35:19.645Z,4.70
2022-12-06T05:37:46.695Z,4.70
2022-12-06T05:40:14.130Z,4.80
2022-12-06T05:42:41.794Z,4.80
2022-12-06T05:45:10.673Z,4.80
2022-12-06T05:47:37.872Z,4.80
2022-12-06T05:50:06.914Z,4.80
2022-12-06T05:52:33.983Z,4.80
2022-12-06T05:55:01.042Z,4.80
2022-12-06T05:57:28.267Z,4.80
2022-12-06T05:59:55.369Z,4.90
2022-12-06T06:02:22.553Z,4.90
2022-12-06T06:04:49.704Z,4.90
2022-12-06T06:07:16.731Z,4.90
2022-12-06T06:09:43.768Z,4.90
2022-12-06T06:12:12.648Z,4.90
2022-12-06T06:14:40.167Z,4.90
2022-12-06T06:17:07.427Z,5.00
2022-12-06T06:19:34.503Z,5.10
2022-12-06T06:22:02.022Z,5.00
2022-12-06T06:24:36.304Z,5.00
2022-12-06T06:27:03.865Z,5.00
2022-12-06T06:29:31.520Z,5.00
2022-12-06T06:31:59.092Z,5.00
2022-12-06T06:34:26.854Z,5.00
2022-12-06T06:36:53.972Z,5.00
2022-12-06T06:39:21.021Z,5.00
2022-12-06T06:41:48.295Z,5.00
2022-12-06T06:44:15.922Z,5.00
2022-12-06T06:46:43.026Z,5.00
2022-12-06T06:49:11.987Z,5.00
2022-12-06T06:51:39.285Z,5.00
2022-12-06T06:54:06.722Z,5.00
2022-12-06T06:56:33.839Z,5.00
2022-12-06T06:59:01.036Z,5.00
2022-12-06T07:01:28.288Z,5.00
2022-12-06T07:03:56.171Z,5.00
2022-12-06T07:06:23.278Z,5.00
2022-12-06T07:08:50.613Z,5.00
2022-12-06T07:11:17.755Z,5.00
2022-12-06T07:13:49.638Z,5.00
2022-12-06T07:16:22.615Z,5.00
2022-12-06T07:18:49.748Z,5.00
2022-12-06T07:21:18.423Z,5.10
2022-12-06T07:23:45.562Z,5.10
2022-12-06T07:26:16.487Z,5.10
2022-12-06T07:28:46.265Z,5.10
2022-12-06T07:31:26.707Z,5.10
2022-12-06T07:33:59.836Z,5.10
2022-12-06T07:36:30.087Z,5.10
2022-12-06T07:38:59.522Z,5.10
2022-12-06T07:41:47.687Z,5.10
2022-12-06T07:44:34.859Z,5.10
2022-12-06T07:47:02.031Z,5.10
2022-12-06T07:49:30.146Z,5.10
2022-12-06T07:51:57.566Z,5.10
2022-12-06T07:54:25.747Z,5.20
2022-12-06T07:56:53.170Z,5.20
2022-12-06T07:59:20.460Z,5.20
2022-12-06T08:01:47.665Z,5.20
2022-12-06T08:04:15.089Z,5.30
2022-12-06T08:06:42.223Z,5.30
2022-12-06T08:09:09.894Z,5.30
2022-12-06T08:11:37.110Z,5.40
2022-12-06T08:14:07.251Z,5.40
2022-12-06T08:16:34.377Z,5.50
2022-12-06T08:19:01.588Z,5.40
2022-12-06T08:21:28.907Z,5.40
2022-12-06T08:23:56.573Z,5.40
2022-12-06T08:26:24.152Z,5.40
2022-12-06T08:28:51.712Z,5.30
2022-12-06T08:31:22.968Z,5.30
2022-12-06T08:33:50.337Z,5.30
2022-12-06T08:36:21.464Z,5.30
2022-12-06T08:38:49.303Z,5.30
2022-12-06T08:41:34.833Z,5.30
2022-12-06T08:44:03.696Z,5.30
2022-12-06T08:46:34.888Z,5.30
2022-12-06T08:49:02.806Z,5.30
2022-12-06T08:51:30.705Z,5.30
2022-12-06T08:53:57.844Z,5.30
2022-12-06T08:56:26.159Z,5.30
2022-12-06T08:58:54.681Z,5.40
2022-12-06T09:01:35.712Z,5.40
2022-12-06T09:04:07.381Z,5.40
2022-12-06T09:06:36.340Z,5.50
2022-12-06T09:09:03.711Z,5.50
2022-12-06T09:11:30.752Z,5.50
2022-12-06T09:13:58.004Z,5.50
2022-12-06T09:16:25.250Z,5.50
2022-12-06T09:18:58.593Z,5.50
2022-12-06T09:21:30.640Z,5.50
2022-12-06T09:23:59.312Z,5.50
2022-12-06T09:26:28.368Z,5.50
2022-12-06T09:28:56.853Z,5.50
2022-12-06T09:31:25.604Z,5.60
2022-12-06T09:33:53.146Z,5.50
2022-12-06T09:36:28.726Z,5.50
2022-12-06T09:39:05.945Z,5.60
2022-12-06T09:42:06.243Z,5.60
2022-12-06T09:44:54.616Z,5.60
2022-12-06T09:47:48.825Z,5.60
2022-12-06T09:50:42.750Z,5.70
2022-12-06T09:54:02.388Z,5.70
2022-12-06T09:56:44.299Z,5.80
2022-12-06T09:59:36.168Z,5.80
2022-12-06T10:03:00.127Z,5.80
2022-12-06T10:06:06.332Z,5.80
2022-12-06T10:08:39.479Z,5.80
2022-12-06T10:11:15.336Z,5.80
2022-12-06T10:14:33.156Z,5.80
2022-12-06T10:17:41.643Z,5.90
2022-12-06T10:20:39.214Z,5.90
2022-12-06T10:23:39.931Z,5.90
2022-12-06T10:26:15.061Z,6.00
2022-12-06T10:28:59.054Z,6.10
2022-12-06T10:31:47.327Z,6.20
2022-12-06T10:34:30.028Z,6.30
2022-12-06T10:37:44.584Z,6.40
2022-12-06T10:40:34.740Z,6.40
2022-12-06T10:43:37.879Z,6.50
2022-12-06T10:46:45.953Z,6.50
2022-12-06T10:49:43.973Z,6.60
2022-12-06T10:52:45.497Z,6.70
2022-12-06T10:55:22.465Z,6.80
2022-12-06T10:58:20.657Z,6.80
2022-12-06T11:00:57.031Z,7.00
2022-12-06T11:04:10.211Z,7.10
2022-12-06T11:06:54.975Z,7.20
2022-12-06T11:09:41.964Z,7.20
2022-12-06T11:12:38.841Z,7.30
2022-12-06T11:15:32.707Z,7.40
2022-12-06T11:18:16.265Z,7.50
2022-12-06T11:21:14.085Z,7.60
2022-12-06T11:23:59.118Z,7.70
2022-12-06T11:26:59.299Z,7.80
2022-12-06T11:29:26.340Z,7.80
2022-12-06T11:32:03.452Z,7.80
2022-12-06T11:34:43.792Z,7.90
2022-12-06T11:37:19.707Z,7.90
2022-12-06T11:39:49.424Z,7.90
2022-12-06T11:42:24.091Z,7.90
2022-12-06T11:45:00.514Z,7.90
2022-12-06T11:47:30.437Z,7.90
2022-12-06T11:50:01.545Z,7.90
2022-12-06T11:52:42.794Z,7.90
2022-12-06T11:55:42.079Z,8.00
2022-12-06T11:58:30.226Z,7.90
2022-12-06T12:01:11.040Z,7.80
2022-12-06T12:03:42.121Z,7.60
2022-12-06T12:06:26.381Z,7.60
2022-12-06T12:09:02.594Z,7.50
2022-12-06T12:11:33.706Z,7.40
2022-12-06T12:14:17.206Z,7.40
2022-12-06T12:16:49.253Z,7.30
2022-12-06T12:20:05.413Z,7.20
2022-12-06T12:22:38.025Z,7.20
2022-12-06T12:25:28.527Z,7.10
2022-12-06T12:27:58.688Z,7.10
2022-12-06T12:30:36.634Z,7.20
2022-12-06T12:33:06.393Z,7.10
2022-12-06T12:35:40.104Z,7.10
2022-12-06T12:38:10.205Z,7.20
2022-12-06T12:40:55.522Z,7.20
2022-12-06T12:43:45.743Z,7.10
2022-12-06T12:46:19.658Z,7.10
2022-12-06T12:48:50.341Z,7.10
2022-12-06T12:51:34.034Z,7.20
2022-12-06T12:54:29.454Z,7.20
2022-12-06T12:56:58.017Z,7.20
2022-12-06T12:59:29.031Z,7.30
2022-12-06T13:02:27.353Z,7.30
2022-12-06T13:05:32.596Z,7.30
2022-12-06T13:08:06.876Z,7.30
2022-12-06T13:10:38.485Z,7.30
2022-12-06T13:13:20.681Z,7.30
2022-12-06T13:15:55.176Z,7.40
2022-12-06T13:18:39.033Z,7.50
2022-12-06T13:21:37.395Z,7.70
2022-12-06T13:24:10.336Z,7.70
2022-12-06T13:26:45.916Z,7.70
2022-12-06T13:29:40.858Z,7.70
2022-12-06T13:32:33.213Z,7.70
2022-12-06T13:35:19.429Z,7.80
2022-12-06T13:37:54.353Z,8.00
2022-12-06T13:40:33.613Z,8.30
2022-12-06T13:43:25.975Z,8.50
2022-12-06T13:45:53.919Z,8.70
2022-12-06T13:48:26.956Z,8.80
2022-12-06T13:51:04.669Z,8.80
2022-12-06T13:53:52.040Z,8.80
2022-12-06T13:56:40.740Z,8.80
2022-12-06T13:59:15.184Z,8.80
2022-12-06T14:01:49.143Z,8.90
2022-12-06T14:09:50.829Z,9.10
2022-12-06T14:12:25.887Z,9.20
2022-12-06T14:15:06.203Z,9.20
2022-12-06T14:20:30.735Z,9.20
2022-12-06T14:22:58.019Z,9.00
2022-12-06T14:25:28.754Z,8.90
2022-12-06T14:28:12.754Z,8.70
2022-12-06T14:30:40.320Z,8.60
2022-12-06T14:33:22.728Z,8.50
2022-12-06T14:35:54.168Z,8.40
2022-12-06T14:38:31.185Z,8.30
2022-12-06T14:41:16.815Z,8.20
2022-12-06T14:43:47.711Z,8.10
2022-12-06T14:46:17.705Z,8.10
2022-12-06T14:49:03.895Z,8.00
2022-12-06T14:51:41.242Z,7.90
2022-12-06T14:54:42.349Z,7.90
2022-12-06T14:57:31.380Z,7.80
2022-12-06T15:00:31.313Z,7.60
2022-12-06T15:03:22.903Z,7.60
2022-12-06T15:06:09.073Z,7.50
2022-12-06T15:08:40.120Z,7.40
2022-12-06T15:11:10.071Z,7.30
2022-12-06T15:16:08.984Z,7.10
2022-12-06T15:19:00.125Z,7.10
2022-12-06T15:21:27.170Z,7.00
2022-12-06T15:23:56.396Z,6.90
2022-12-06T15:26:24.961Z,6.80
2022-12-06T15:28:52.716Z,6.70
2022-12-06T15:31:28.478Z,6.70
2022-12-06T15:33:56.219Z,6.60
2022-12-06T15:36:29.641Z,6.60
2022-12-06T15:38:57.827Z,6.50
2022-12-06T15:41:29.098Z,6.50
2022-12-06T15:43:59.207Z,6.50
2022-12-06T15:46:29.796Z,6.50
2022-12-06T15:48:57.305Z,6.40
2022-12-06T15:51:27.048Z,6.40
2022-12-06T15:53:57.352Z,6.40
2022-12-06T15:56:28.897Z,6.40
2022-12-06T15:58:56.173Z,6.40
2022-12-06T16:01:26.179Z,6.30
2022-12-06T16:03:55.940Z,6.40
2022-12-06T16:06:26.489Z,6.30
2022-12-06T16:08:57.054Z,6.30
2022-12-06T16:11:26.566Z,6.30
2022-12-06T16:13:53.746Z,6.30
2022-12-06T16:16:22.810Z,6.30
2022-12-06T16:18:51.247Z,6.30
2022-12-06T16:21:28.604Z,6.30
2022-12-06T16:24:14.197Z,6.30
2022-12-06T16:26:44.331Z,6.40
2022-12-06T16:29:23.207Z,6.30
2022-12-06T16:31:51.586Z,6.30
2022-12-06T16:34:19.188Z,6.30
2022-12-06T16:37:13.187Z,6.30
2022-12-06T16:39:40.686Z,6.30
2022-12-06T16:42:08.013Z,6.30
2022-12-06T16:44:51.192Z,6.30
2022-12-06T16:49:47.952Z,6.20
2022-12-06T16:52:17.493Z,6.30
2022-12-06T16:54:45.418Z,6.20
2022-12-06T16:57:14.913Z,6.20
2022-12-06T16:59:42.985Z,6.30
2022-12-06T17:02:32.819Z,6.30
2022-12-06T17:05:06.664Z,6.30
2022-12-06T17:07:39.599Z,6.30
2022-12-06T17:10:08.876Z,6.30
2022-12-06T17:12:37.107Z,6.20
2022-12-06T17:15:07.121Z,6.30
2022-12-06T17:17:37.202Z,6.20
2022-12-06T17:20:08.474Z,6.20
2022-12-06T17:22:37.006Z,6.20
2022-12-06T17:25:07.179Z,6.30
2022-12-06T17:27:35.448Z,6.30
2022-12-06T17:30:03.861Z,6.30
2022-12-06T17:32:31.548Z,6.30
2022-12-06T17:34:59.389Z,6.20
2022-12-06T17:37:27.535Z,6.20
2022-12-06T17:39:55.613Z,6.30
2022-12-06T17:42:42.206Z,6.20
2022-12-06T17:45:10.235Z,6.20
2022-12-06T17:47:37.831Z,6.20
2022-12-06T17:50:06.839Z,6.20
2022-12-06T17:52:34.811Z,6.20
2022-12-06T17:55:02.786Z,6.10
2022-12-06T17:57:30.788Z,6.10
2022-12-06T17:59:58.482Z,6.10
2022-12-06T18:02:26.315Z,6.10
2022-12-06T18:04:56.121Z,6.10
2022-12-06T18:07:23.932Z,6.10
2022-12-06T18:09:51.678Z,6.20
2022-12-06T18:12:19.257Z,6.10
2022-12-06T18:14:47.178Z,6.10
2022-12-06T18:17:17.969Z,6.10
2022-12-06T18:19:48.637Z,6.10
2022-12-06T18:22:16.304Z,6.10
2022-12-06T18:24:45.139Z,6.10
2022-12-06T18:27:13.322Z,6.00
2022-12-06T18:29:41.307Z,6.00
2022-12-06T18:32:10.579Z,6.00
2022-12-06T18:34:38.856Z,6.00
2022-12-06T18:37:06.925Z,5.90
2022-12-06T18:39:34.599Z,5.90
2022-12-06T18:42:02.745Z,5.90
2022-12-06T18:44:30.750Z,5.90
2022-12-06T18:46:58.530Z,5.90
2022-12-06T18:49:26.380Z,5.90
2022-12-06T18:51:54.584Z,5.90
2022-12-06T18:54:22.775Z,5.90
2022-12-06T18:56:50.805Z,5.90
2022-12-06T18:59:23.145Z,5.90
2022-12-06T19:01:58.067Z,5.90
2022-12-06T19:04:26.329Z,6.00
2022-12-06T19:06:57.340Z,6.00
2022-12-06T19:09:25.804Z,6.00
2022-12-06T19:11:56.858Z,6.00
2022-12-06T19:14:25.452Z,6.00
2022-12-06T19:16:58.000Z,6.00
2022-12-06T19:19:28.702Z,6.00
2022-12-06T19:22:00.994Z,6.00
2022-12-06T19:24:32.052Z,6.00
2022-12-06T19:27:01.171Z,6.00
2022-12-06T19:29:32.343Z,6.00
2022-12-06T19:32:03.013Z,6.00
2022-12-06T19:34:31.286Z,6.00
2022-12-06T19:36:59.831Z,6.00
2022-12-06T19:39:29.799Z,6.00
2022-12-06T19:42:16.632Z,6.00
2022-12-06T19:44:50.444Z,6.00
2022-12-06T19:47:19.485Z,6.10
2022-12-06T19:49:49.589Z,6.10
2022-12-06T19:52:19.889Z,6.10
2022-12-06T19:54:49.963Z,6.10
2022-12-06T19:57:18.520Z,6.10
2022-12-06T19:59:47.487Z,6.10
2022-12-06T20:02:15.865Z,6.10
2022-12-06T20:04:44.567Z,6.10
2022-12-06T20:07:12.956Z,6.10
2022-12-06T20:09:41.225Z,6.10
2022-12-06T20:12:09.582Z,6.10
2022-12-06T20:14:46.804Z,6.10
2022-12-06T20:17:24.202Z,6.10
2022-12-06T20:19:52.673Z,6.20
2022-12-06T20:22:23.214Z,6.10
2022-12-06T20:24:52.035Z,6.20
2022-12-06T20:27:42.182Z,6.20
2022-12-06T20:30:11.088Z,6.20
2022-12-06T20:32:38.498Z,6.20
2022-12-06T20:35:06.878Z,6.20
2022-12-06T20:37:35.383Z,6.20
2022-12-06T20:40:04.373Z,6.20
2022-12-06T20:42:36.908Z,6.20
2022-12-06T20:45:11.944Z,6.20
2022-12-06T20:47:40.028Z,6.20
2022-12-06T20:50:09.114Z,6.20
2022-12-06T20:52:37.174Z,6.20
2022-12-06T20:55:05.387Z,6.20
2022-12-06T20:57:33.582Z,6.10
2022-12-06T21:00:07.040Z,6.20
2022-12-06T21:02:35.544Z,6.10
2022-12-06T21:05:06.592Z,6.10
2022-12-06T21:07:34.573Z,6.10
2022-12-06T21:10:02.160Z,6.10
2022-12-06T21:12:30.260Z,6.00
2022-12-06T21:14:57.626Z,6.00
2022-12-06T21:17:25.378Z,6.00
2022-12-06T21:19:52.879Z,5.90
2022-12-06T21:22:19.993Z,5.90
2022-12-06T21:24:47.197Z,5.90
2022-12-06T21:27:14.737Z,5.90
2022-12-06T21:29:42.719Z,5.90
2022-12-06T21:32:10.358Z,5.90
2022-12-06T21:34:46.030Z,5.80
2022-12-06T21:37:13.823Z,5.80
2022-12-06T21:39:41.339Z,5.80
2022-12-06T21:42:11.074Z,5.80
2022-12-06T21:44:38.166Z,5.80
2022-12-06T21:47:05.358Z,5.70
2022-12-06T21:49:32.490Z,5.70
2022-12-06T21:52:03.299Z,5.80
2022-12-06T21:54:33.146Z,5.80
2022-12-06T21:57:00.299Z,5.80
2022-12-06T21:59:27.558Z,5.80
2022-12-06T22:01:54.997Z,5.80
2022-12-06T22:04:22.177Z,5.80
2022-12-06T22:06:49.285Z,5.70
2022-12-06T22:09:16.355Z,5.70
2022-12-06T22:11:43.842Z,5.70
2022-12-06T22:14:11.210Z,5.70
2022-12-06T22:16:38.454Z,5.70
2022-12-06T22:19:05.667Z,5.70
2022-12-06T22:21:33.535Z,5.70
2022-12-06T22:24:01.362Z,5.70
2022-12-06T22:26:30.945Z,5.70
2022-12-06T22:28:59.722Z,5.70
2022-12-06T22:31:30.638Z,5.70
2022-12-06T22:33:59.072Z,5.70
2022-12-06T22:36:27.337Z,5.70
2022-12-06T22:39:02.149Z,5.80
2022-12-06T22:41:31.401Z,5.80
2022-12-06T22:44:05.078Z,5.80
2022-12-06T22:46:34.010Z,5.90
2022-12-06T22:49:02.979Z,5.90
2022-12-06T22:51:36.702Z,5.90
2022-12-06T22:54:11.565Z,5.90
2022-12-06T22:56:41.134Z,6.00
2022-12-06T22:59:09.658Z,6.00
2022-12-06T23:01:36.920Z,6.00
2022-12-06T23:04:06.588Z,6.10
2022-12-06T23:06:35.693Z,6.10
2022-12-06T23:09:07.855Z,6.10
2022-12-06T23:11:37.196Z,6.10
2022-12-06T23:14:04.836Z,6.10
2022-12-06T23:16:33.009Z,6.00
2022-12-06T23:19:02.915Z,6.00
2022-12-06T23:21:35.940Z,6.10
2022-12-06T23:24:09.742Z,6.10
2022-12-06T23:26:53.107Z,6.10
2022-12-06T23:29:21.987Z,6.10
2022-12-06T23:31:49.181Z,6.10
2022-12-06T23:34:22.477Z,6.10
2022-12-06T23:36:50.212Z,6.10
2022-12-06T23:39:17.707Z,6.10
2022-12-06T23:41:45.281Z,6.10
2022-12-06T23:44:13.420Z,6.10
2022-12-06T23:46:43.459Z,6.00
2022-12-06T23:49:20.752Z,6.00
2022-12-06T23:51:49.031Z,6.00
2022-12-06T23:54:17.755Z,6.00
2022-12-06T23:56:45.473Z,6.10
2022-12-06T23:59:15.176Z,6.10
